Terminal Aerodrome Forecast
Issued by NWS Twin Cities, MN

Home | Current Version | Previous Version | Text Only | Print | Product List | Glossary Off
Versions: 1 2 3 4 5 6 7 8 9 10 11 12 13 14 15 16 17 18 19 20 21 22 23 24 25 26 27

308
FTUS43 KMPX 061732
TAFMSP
TAF
KMSP 061732Z 0618/0724 19012KT P6SM SCT050 BKN110
     FM062100 20012G18KT P6SM OVC090 WS020/27040KT
     FM070900 25012G22KT P6SM SCT020 OVC040
     FM071800 27014G22KT 6SM -SHSN BLSN OVC020
     FM072100 27016G26KT 3SM -SHSN BLSN OVC015=

USA.gov is the U.S. government's official web portal to all federal, state and local government web resources and services.